Ringmer, United Kingdom
Current Conditions -  °F | °C
As of 3:20 PM on Saturday 25 Oct 2014 (Local Time) from EGKA Reporting Station
Broken Clouds Broken Clouds  
Wind Chill: 57°   Ceiling: 4200
Heat Index: 57°   Visibility: 6mi
Dew Point: 48°   Wind: 12mph
Humidity: 72%   Direction: 240°WSW
Pressure: 30.09"   Gusts: NA
Location:  50.89°N, 0.06°E
Report Text: EGKA 251420Z 24010KT 9999 FEW036 BKN042 14/09 Q1019
Loading
Personal Weather Stations






























Interactive Weather Map New forecast layout! Learn more

10-Day Weather Forecast

Advertisements
Track Severe Weather on mobile